sensor_id;sensor_type;location;lat;lon;timestamp;temperature;humidity
3770;DHT22;1900;48.890;9.190;2022-07-18T00:01:58;27.70;33.60
3770;DHT22;1900;48.890;9.190;2022-07-18T00:04:25;27.70;33.60
3770;DHT22;1900;48.890;9.190;2022-07-18T00:06:52;27.70;33.60
3770;DHT22;1900;48.890;9.190;2022-07-18T00:09:18;27.60;33.60
3770;DHT22;1900;48.890;9.190;2022-07-18T00:11:44;27.60;33.60
3770;DHT22;1900;48.890;9.190;2022-07-18T00:14:10;27.60;33.70
3770;DHT22;1900;48.890;9.190;2022-07-18T00:16:36;27.50;33.70
3770;DHT22;1900;48.890;9.190;2022-07-18T00:19:02;27.50;33.70
3770;DHT22;1900;48.890;9.190;2022-07-18T00:21:28;27.50;33.70
3770;DHT22;1900;48.890;9.190;2022-07-18T00:23:54;27.40;33.70
3770;DHT22;1900;48.890;9.190;2022-07-18T00:26:20;27.40;33.70
3770;DHT22;1900;48.890;9.190;2022-07-18T00:28:45;27.40;33.70
3770;DHT22;1900;48.890;9.190;2022-07-18T00:31:11;27.30;33.60
3770;DHT22;1900;48.890;9.190;2022-07-18T00:33:37;27.30;33.70
3770;DHT22;1900;48.890;9.190;2022-07-18T00:36:02;27.30;33.70
3770;DHT22;1900;48.890;9.190;2022-07-18T00:38:28;27.20;34.30
3770;DHT22;1900;48.890;9.190;2022-07-18T00:40:54;27.20;33.70
3770;DHT22;1900;48.890;9.190;2022-07-18T00:43:19;27.20;33.70
3770;DHT22;1900;48.890;9.190;2022-07-18T00:45:46;27.10;33.60
3770;DHT22;1900;48.890;9.190;2022-07-18T00:48:13;27.10;33.70
3770;DHT22;1900;48.890;9.190;2022-07-18T00:50:39;27.00;33.70
3770;DHT22;1900;48.890;9.190;2022-07-18T00:53:06;27.00;33.60
3770;DHT22;1900;48.890;9.190;2022-07-18T00:55:33;27.00;33.70
3770;DHT22;1900;48.890;9.190;2022-07-18T00:57:59;26.90;33.60
3770;DHT22;1900;48.890;9.190;2022-07-18T01:00:25;26.90;33.70
3770;DHT22;1900;48.890;9.190;2022-07-18T01:03:24;26.80;33.60
3770;DHT22;1900;48.890;9.190;2022-07-18T01:05:49;26.80;33.60
3770;DHT22;1900;48.890;9.190;2022-07-18T01:08:15;26.80;33.70
3770;DHT22;1900;48.890;9.190;2022-07-18T01:10:41;26.70;33.60
3770;DHT22;1900;48.890;9.190;2022-07-18T01:13:06;26.70;33.60
3770;DHT22;1900;48.890;9.190;2022-07-18T01:15:32;26.70;33.70
3770;DHT22;1900;48.890;9.190;2022-07-18T01:17:57;26.60;33.60
3770;DHT22;1900;48.890;9.190;2022-07-18T01:20:27;26.60;33.60
3770;DHT22;1900;48.890;9.190;2022-07-18T01:22:53;26.50;34.20
3770;DHT22;1900;48.890;9.190;2022-07-18T01:25:19;26.50;33.70
3770;DHT22;1900;48.890;9.190;2022-07-18T01:27:45;26.50;33.70
3770;DHT22;1900;48.890;9.190;2022-07-18T01:30:10;26.50;33.70
3770;DHT22;1900;48.890;9.190;2022-07-18T01:32:36;26.40;33.70
3770;DHT22;1900;48.890;9.190;2022-07-18T01:35:02;26.40;33.70
3770;DHT22;1900;48.890;9.190;2022-07-18T01:37:28;26.40;33.70
3770;DHT22;1900;48.890;9.190;2022-07-18T01:39:53;26.30;33.70
3770;DHT22;1900;48.890;9.190;2022-07-18T01:42:19;26.30;33.70
3770;DHT22;1900;48.890;9.190;2022-07-18T01:44:45;26.30;33.80
3770;DHT22;1900;48.890;9.190;2022-07-18T01:47:11;26.20;33.70
3770;DHT22;1900;48.890;9.190;2022-07-18T01:49:38;26.20;33.80
3770;DHT22;1900;48.890;9.190;2022-07-18T01:52:04;26.20;33.80
3770;DHT22;1900;48.890;9.190;2022-07-18T01:54:32;26.20;33.80
3770;DHT22;1900;48.890;9.190;2022-07-18T01:56:59;26.10;33.80
3770;DHT22;1900;48.890;9.190;2022-07-18T01:59:25;26.10;33.80
3770;DHT22;1900;48.890;9.190;2022-07-18T02:01:51;26.00;33.80
3770;DHT22;1900;48.890;9.190;2022-07-18T02:04:16;26.00;33.80
3770;DHT22;1900;48.890;9.190;2022-07-18T02:06:42;26.00;33.80
3770;DHT22;1900;48.890;9.190;2022-07-18T02:09:10;26.00;33.90
3770;DHT22;1900;48.890;9.190;2022-07-18T02:11:36;25.90;33.80
3770;DHT22;1900;48.890;9.190;2022-07-18T02:14:03;25.90;33.90
3770;DHT22;1900;48.890;9.190;2022-07-18T02:16:29;25.90;33.90
3770;DHT22;1900;48.890;9.190;2022-07-18T02:18:55;25.90;34.00
3770;DHT22;1900;48.890;9.190;2022-07-18T02:21:21;25.90;34.00
3770;DHT22;1900;48.890;9.190;2022-07-18T02:23:47;25.80;34.00
3770;DHT22;1900;48.890;9.190;2022-07-18T02:26:13;25.90;34.10
3770;DHT22;1900;48.890;9.190;2022-07-18T02:28:38;25.80;34.10
3770;DHT22;1900;48.890;9.190;2022-07-18T02:31:05;25.80;34.10
3770;DHT22;1900;48.890;9.190;2022-07-18T02:33:31;25.80;34.20
3770;DHT22;1900;48.890;9.190;2022-07-18T02:35:57;25.70;34.70
3770;DHT22;1900;48.890;9.190;2022-07-18T02:38:23;25.70;34.10
3770;DHT22;1900;48.890;9.190;2022-07-18T02:40:49;25.70;34.10
3770;DHT22;1900;48.890;9.190;2022-07-18T02:43:14;25.70;34.10
3770;DHT22;1900;48.890;9.190;2022-07-18T02:45:40;25.60;34.10
3770;DHT22;1900;48.890;9.190;2022-07-18T02:48:06;25.60;34.10
3770;DHT22;1900;48.890;9.190;2022-07-18T02:50:31;25.50;34.10
3770;DHT22;1900;48.890;9.190;2022-07-18T02:52:57;25.50;34.10
3770;DHT22;1900;48.890;9.190;2022-07-18T02:55:23;25.50;34.20
3770;DHT22;1900;48.890;9.190;2022-07-18T02:57:49;25.50;34.20
3770;DHT22;1900;48.890;9.190;2022-07-18T03:00:16;25.50;34.30
3770;DHT22;1900;48.890;9.190;2022-07-18T03:02:42;25.50;34.50
3770;DHT22;1900;48.890;9.190;2022-07-18T03:05:09;25.50;34.50
3770;DHT22;1900;48.890;9.190;2022-07-18T03:07:35;25.50;34.50
3770;DHT22;1900;48.890;9.190;2022-07-18T03:10:01;25.50;34.50
3770;DHT22;1900;48.890;9.190;2022-07-18T03:12:27;25.50;34.50
3770;DHT22;1900;48.890;9.190;2022-07-18T03:14:52;25.40;34.40
3770;DHT22;1900;48.890;9.190;2022-07-18T03:17:18;25.40;34.40
3770;DHT22;1900;48.890;9.190;2022-07-18T03:19:43;25.40;34.40
3770;DHT22;1900;48.890;9.190;2022-07-18T03:22:09;25.40;34.50
3770;DHT22;1900;48.890;9.190;2022-07-18T03:24:35;25.40;34.50
3770;DHT22;1900;48.890;9.190;2022-07-18T03:27:01;25.40;34.60
3770;DHT22;1900;48.890;9.190;2022-07-18T03:29:27;25.40;34.60
3770;DHT22;1900;48.890;9.190;2022-07-18T03:31:52;25.40;34.70
3770;DHT22;1900;48.890;9.190;2022-07-18T03:34:18;25.40;34.70
3770;DHT22;1900;48.890;9.190;2022-07-18T03:36:44;25.40;34.80
3770;DHT22;1900;48.890;9.190;2022-07-18T03:39:10;25.40;34.80
3770;DHT22;1900;48.890;9.190;2022-07-18T03:41:38;25.40;34.80
3770;DHT22;1900;48.890;9.190;2022-07-18T03:44:05;25.40;34.80
3770;DHT22;1900;48.890;9.190;2022-07-18T03:46:31;25.40;34.80
3770;DHT22;1900;48.890;9.190;2022-07-18T03:48:57;25.30;34.80
3770;DHT22;1900;48.890;9.190;2022-07-18T03:51:23;25.30;34.80
3770;DHT22;1900;48.890;9.190;2022-07-18T03:53:49;25.30;34.80
3770;DHT22;1900;48.890;9.190;2022-07-18T03:56:15;25.30;34.90
3770;DHT22;1900;48.890;9.190;2022-07-18T03:58:40;25.30;35.00
3770;DHT22;1900;48.890;9.190;2022-07-18T04:01:06;25.30;35.00
3770;DHT22;1900;48.890;9.190;2022-07-18T04:03:31;25.30;35.10
3770;DHT22;1900;48.890;9.190;2022-07-18T04:05:57;25.30;35.20
3770;DHT22;1900;48.890;9.190;2022-07-18T04:08:23;25.30;35.10
3770;DHT22;1900;48.890;9.190;2022-07-18T04:10:48;25.30;35.20
3770;DHT22;1900;48.890;9.190;2022-07-18T04:13:14;25.30;35.20
3770;DHT22;1900;48.890;9.190;2022-07-18T04:15:40;25.30;35.20
3770;DHT22;1900;48.890;9.190;2022-07-18T04:18:07;25.30;35.20
3770;DHT22;1900;48.890;9.190;2022-07-18T04:20:34;25.20;35.10
3770;DHT22;1900;48.890;9.190;2022-07-18T04:23:03;25.20;35.10
3770;DHT22;1900;48.890;9.190;2022-07-18T04:25:36;25.10;35.00
3770;DHT22;1900;48.890;9.190;2022-07-18T04:28:03;25.10;35.10
3770;DHT22;1900;48.890;9.190;2022-07-18T04:30:30;25.00;34.80
3770;DHT22;1900;48.890;9.190;2022-07-18T04:32:56;24.90;34.70
3770;DHT22;1900;48.890;9.190;2022-07-18T04:35:22;24.80;34.60
3770;DHT22;1900;48.890;9.190;2022-07-18T04:37:49;24.70;34.60
3770;DHT22;1900;48.890;9.190;2022-07-18T04:40:15;24.70;34.70
3770;DHT22;1900;48.890;9.190;2022-07-18T04:42:42;24.60;34.70
3770;DHT22;1900;48.890;9.190;2022-07-18T04:45:08;24.50;34.60
3770;DHT22;1900;48.890;9.190;2022-07-18T04:47:34;24.50;34.80
3770;DHT22;1900;48.890;9.190;2022-07-18T04:50:01;24.40;35.40
3770;DHT22;1900;48.890;9.190;2022-07-18T04:52:27;24.40;34.80
3770;DHT22;1900;48.890;9.190;2022-07-18T04:54:52;24.30;34.80
3770;DHT22;1900;48.890;9.190;2022-07-18T04:57:18;24.30;34.80
3770;DHT22;1900;48.890;9.190;2022-07-18T04:59:45;24.20;34.90
3770;DHT22;1900;48.890;9.190;2022-07-18T05:02:11;24.10;34.80
3770;DHT22;1900;48.890;9.190;2022-07-18T05:04:37;24.00;34.90
3770;DHT22;1900;48.890;9.190;2022-07-18T05:07:04;23.90;34.90
3770;DHT22;1900;48.890;9.190;2022-07-18T05:09:30;23.80;34.90
3770;DHT22;1900;48.890;9.190;2022-07-18T05:11:56;23.80;35.00
3770;DHT22;1900;48.890;9.190;2022-07-18T05:14:21;23.70;35.10
3770;DHT22;1900;48.890;9.190;2022-07-18T05:16:48;23.70;35.20
3770;DHT22;1900;48.890;9.190;2022-07-18T05:19:13;23.60;35.20
3770;DHT22;1900;48.890;9.190;2022-07-18T05:21:42;23.60;35.20
3770;DHT22;1900;48.890;9.190;2022-07-18T05:24:07;23.60;35.30
3770;DHT22;1900;48.890;9.190;2022-07-18T05:26:33;23.50;35.30
3770;DHT22;1900;48.890;9.190;2022-07-18T05:28:59;23.50;35.50
3770;DHT22;1900;48.890;9.190;2022-07-18T05:31:25;23.60;35.70
3770;DHT22;1900;48.890;9.190;2022-07-18T05:33:50;23.60;35.90
3770;DHT22;1900;48.890;9.190;2022-07-18T05:36:16;23.60;36.00
3770;DHT22;1900;48.890;9.190;2022-07-18T05:38:41;23.70;36.20
3770;DHT22;1900;48.890;9.190;2022-07-18T05:41:07;23.70;36.20
3770;DHT22;1900;48.890;9.190;2022-07-18T05:43:32;23.80;37.00
3770;DHT22;1900;48.890;9.190;2022-07-18T05:45:58;23.80;36.40
3770;DHT22;1900;48.890;9.190;2022-07-18T05:48:24;23.90;36.50
3770;DHT22;1900;48.890;9.190;2022-07-18T05:50:49;24.00;36.60
3770;DHT22;1900;48.890;9.190;2022-07-18T05:53:15;24.00;36.60
3770;DHT22;1900;48.890;9.190;2022-07-18T05:55:40;24.00;36.60
3770;DHT22;1900;48.890;9.190;2022-07-18T05:58:06;24.00;37.20
3770;DHT22;1900;48.890;9.190;2022-07-18T06:00:32;24.00;36.60
3770;DHT22;1900;48.890;9.190;2022-07-18T06:02:57;24.10;36.80
3770;DHT22;1900;48.890;9.190;2022-07-18T06:05:23;24.10;36.80
3770;DHT22;1900;48.890;9.190;2022-07-18T06:07:49;24.10;36.70
3770;DHT22;1900;48.890;9.190;2022-07-18T06:10:14;24.10;36.70
3770;DHT22;1900;48.890;9.190;2022-07-18T06:12:40;24.20;36.80
3770;DHT22;1900;48.890;9.190;2022-07-18T06:15:06;24.20;37.00
3770;DHT22;1900;48.890;9.190;2022-07-18T06:17:33;24.20;36.80
3770;DHT22;1900;48.890;9.190;2022-07-18T06:19:59;24.20;36.90
3770;DHT22;1900;48.890;9.190;2022-07-18T06:22:24;24.20;36.90
3770;DHT22;1900;48.890;9.190;2022-07-18T06:24:50;24.20;37.00
3770;DHT22;1900;48.890;9.190;2022-07-18T06:27:16;24.30;37.20
3770;DHT22;1900;48.890;9.190;2022-07-18T06:29:42;24.30;37.30
3770;DHT22;1900;48.890;9.190;2022-07-18T06:32:07;24.30;37.30
3770;DHT22;1900;48.890;9.190;2022-07-18T06:34:35;24.40;37.50
3770;DHT22;1900;48.890;9.190;2022-07-18T06:37:01;24.50;37.50
3770;DHT22;1900;48.890;9.190;2022-07-18T06:39:27;24.50;37.50
3770;DHT22;1900;48.890;9.190;2022-07-18T06:41:53;24.60;37.60
3770;DHT22;1900;48.890;9.190;2022-07-18T06:44:21;24.60;38.20
3770;DHT22;1900;48.890;9.190;2022-07-18T06:46:47;24.60;37.60
3770;DHT22;1900;48.890;9.190;2022-07-18T06:49:13;24.70;37.70
3770;DHT22;1900;48.890;9.190;2022-07-18T06:51:38;24.70;37.80
3770;DHT22;1900;48.890;9.190;2022-07-18T06:54:04;24.80;37.90
3770;DHT22;1900;48.890;9.190;2022-07-18T06:56:29;24.80;37.80
3770;DHT22;1900;48.890;9.190;2022-07-18T06:58:55;24.80;37.80
3770;DHT22;1900;48.890;9.190;2022-07-18T07:01:21;24.90;37.90
3770;DHT22;1900;48.890;9.190;2022-07-18T07:03:47;25.00;38.00
3770;DHT22;1900;48.890;9.190;2022-07-18T07:06:13;25.00;38.00
3770;DHT22;1900;48.890;9.190;2022-07-18T07:08:39;25.10;38.20
3770;DHT22;1900;48.890;9.190;2022-07-18T07:11:04;25.10;38.10
3770;DHT22;1900;48.890;9.190;2022-07-18T07:13:31;25.20;38.20
3770;DHT22;1900;48.890;9.190;2022-07-18T07:15:57;25.30;38.40
3770;DHT22;1900;48.890;9.190;2022-07-18T07:18:22;25.30;38.30
3770;DHT22;1900;48.890;9.190;2022-07-18T07:20:48;25.40;38.30
3770;DHT22;1900;48.890;9.190;2022-07-18T07:23:13;25.40;38.30
3770;DHT22;1900;48.890;9.190;2022-07-18T07:25:39;25.50;38.50
3770;DHT22;1900;48.890;9.190;2022-07-18T07:28:06;25.50;38.50
3770;DHT22;1900;48.890;9.190;2022-07-18T07:30:32;25.60;38.50
3770;DHT22;1900;48.890;9.190;2022-07-18T07:32:59;25.70;38.70
3770;DHT22;1900;48.890;9.190;2022-07-18T07:35:25;25.70;38.60
3770;DHT22;1900;48.890;9.190;2022-07-18T07:37:53;25.80;38.70
3770;DHT22;1900;48.890;9.190;2022-07-18T07:40:19;25.90;38.80
3770;DHT22;1900;48.890;9.190;2022-07-18T07:42:45;25.90;38.80
3770;DHT22;1900;48.890;9.190;2022-07-18T07:45:12;26.00;38.90
3770;DHT22;1900;48.890;9.190;2022-07-18T07:47:37;26.10;39.00
3770;DHT22;1900;48.890;9.190;2022-07-18T07:50:04;26.20;39.10
3770;DHT22;1900;48.890;9.190;2022-07-18T07:52:31;26.30;39.20
3770;DHT22;1900;48.890;9.190;2022-07-18T07:54:57;26.40;39.30
3770;DHT22;1900;48.890;9.190;2022-07-18T07:57:22;26.50;39.40
3770;DHT22;1900;48.890;9.190;2022-07-18T07:59:48;26.60;39.30
3770;DHT22;1900;48.890;9.190;2022-07-18T08:02:14;26.70;39.30
3770;DHT22;1900;48.890;9.190;2022-07-18T08:04:41;26.80;39.20
3770;DHT22;1900;48.890;9.190;2022-07-18T08:07:07;26.80;39.20
3770;DHT22;1900;48.890;9.190;2022-07-18T08:09:33;26.90;39.30
3770;DHT22;1900;48.890;9.190;2022-07-18T08:11:59;27.00;39.30
3770;DHT22;1900;48.890;9.190;2022-07-18T08:14:25;27.20;39.50
3770;DHT22;1900;48.890;9.190;2022-07-18T08:16:50;27.20;39.50
3770;DHT22;1900;48.890;9.190;2022-07-18T08:19:16;27.30;39.50
3770;DHT22;1900;48.890;9.190;2022-07-18T08:21:41;27.40;39.70
3770;DHT22;1900;48.890;9.190;2022-07-18T08:24:07;27.60;39.80
3770;DHT22;1900;48.890;9.190;2022-07-18T08:26:33;27.70;39.80
3770;DHT22;1900;48.890;9.190;2022-07-18T08:29:01;27.80;39.90
3770;DHT22;1900;48.890;9.190;2022-07-18T08:31:27;28.00;40.10
3770;DHT22;1900;48.890;9.190;2022-07-18T08:33:53;28.10;40.20
3770;DHT22;1900;48.890;9.190;2022-07-18T08:36:18;28.20;40.20
3770;DHT22;1900;48.890;9.190;2022-07-18T08:38:45;28.40;40.30
3770;DHT22;1900;48.890;9.190;2022-07-18T08:41:11;28.50;40.30
3770;DHT22;1900;48.890;9.190;2022-07-18T08:43:38;28.60;40.30
3770;DHT22;1900;48.890;9.190;2022-07-18T08:46:05;28.80;40.40
3770;DHT22;1900;48.890;9.190;2022-07-18T08:48:31;28.90;40.40
3770;DHT22;1900;48.890;9.190;2022-07-18T08:50:59;29.00;40.40
3770;DHT22;1900;48.890;9.190;2022-07-18T08:53:26;29.10;40.40
3770;DHT22;1900;48.890;9.190;2022-07-18T08:55:52;29.20;40.50
3770;DHT22;1900;48.890;9.190;2022-07-18T08:58:18;29.40;40.50
3770;DHT22;1900;48.890;9.190;2022-07-18T09:00:44;29.50;40.50
3770;DHT22;1900;48.890;9.190;2022-07-18T09:03:11;29.60;40.50
3770;DHT22;1900;48.890;9.190;2022-07-18T09:05:36;29.70;40.50
3770;DHT22;1900;48.890;9.190;2022-07-18T09:10:55;29.90;40.50
3770;DHT22;1900;48.890;9.190;2022-07-18T09:13:25;30.00;40.40
3770;DHT22;1900;48.890;9.190;2022-07-18T09:16:08;30.20;40.50
3770;DHT22;1900;48.890;9.190;2022-07-18T09:23:31;30.50;40.50
3770;DHT22;1900;48.890;9.190;2022-07-18T09:25:57;30.60;40.60
3770;DHT22;1900;48.890;9.190;2022-07-18T09:28:25;30.80;40.60
3770;DHT22;1900;48.890;9.190;2022-07-18T09:30:51;30.90;40.60
3770;DHT22;1900;48.890;9.190;2022-07-18T09:33:17;31.00;40.50
3770;DHT22;1900;48.890;9.190;2022-07-18T09:35:48;31.10;40.50
3770;DHT22;1900;48.890;9.190;2022-07-18T09:38:17;31.20;40.40
3770;DHT22;1900;48.890;9.190;2022-07-18T09:40:44;31.40;40.50
3770;DHT22;1900;48.890;9.190;2022-07-18T09:43:12;31.50;40.40
3770;DHT22;1900;48.890;9.190;2022-07-18T09:45:49;31.60;40.60
3770;DHT22;1900;48.890;9.190;2022-07-18T09:48:26;31.70;40.60
3770;DHT22;1900;48.890;9.190;2022-07-18T09:53:23;32.00;40.50
3770;DHT22;1900;48.890;9.190;2022-07-18T09:55:50;32.20;40.50
3770;DHT22;1900;48.890;9.190;2022-07-18T09:58:22;32.30;40.50
3770;DHT22;1900;48.890;9.190;2022-07-18T10:00:48;32.40;40.40
3770;DHT22;1900;48.890;9.190;2022-07-18T10:03:15;32.60;40.60
3770;DHT22;1900;48.890;9.190;2022-07-18T10:05:43;32.70;40.20
3770;DHT22;1900;48.890;9.190;2022-07-18T10:08:16;32.80;39.90
3770;DHT22;1900;48.890;9.190;2022-07-18T10:10:44;32.90;40.10
3770;DHT22;1900;48.890;9.190;2022-07-18T10:13:11;33.10;40.30
3770;DHT22;1900;48.890;9.190;2022-07-18T10:15:39;33.20;40.40
3770;DHT22;1900;48.890;9.190;2022-07-18T10:18:07;33.30;39.90
3770;DHT22;1900;48.890;9.190;2022-07-18T10:20:45;33.50;39.60
3770;DHT22;1900;48.890;9.190;2022-07-18T10:23:27;33.60;39.40
3770;DHT22;1900;48.890;9.190;2022-07-18T10:26:24;33.70;39.50
3770;DHT22;1900;48.890;9.190;2022-07-18T10:36:39;34.10;39.50
3770;DHT22;1900;48.890;9.190;2022-07-18T10:39:08;34.20;39.50
3770;DHT22;1900;48.890;9.190;2022-07-18T10:57:28;35.00;39.70
3770;DHT22;1900;48.890;9.190;2022-07-18T11:02:43;35.20;39.10
3770;DHT22;1900;48.890;9.190;2022-07-18T11:05:36;35.40;39.20
3770;DHT22;1900;48.890;9.190;2022-07-18T11:16:01;35.90;39.50
3770;DHT22;1900;48.890;9.190;2022-07-18T11:21:25;36.10;39.60
3770;DHT22;1900;48.890;9.190;2022-07-18T11:24:04;36.10;39.60
3770;DHT22;1900;48.890;9.190;2022-07-18T11:26:35;36.20;39.30
3770;DHT22;1900;48.890;9.190;2022-07-18T11:29:09;36.30;39.20
3770;DHT22;1900;48.890;9.190;2022-07-18T11:31:44;36.40;38.70
3770;DHT22;1900;48.890;9.190;2022-07-18T11:34:11;36.40;38.50
3770;DHT22;1900;48.890;9.190;2022-07-18T11:36:39;36.50;38.90
3770;DHT22;1900;48.890;9.190;2022-07-18T11:39:06;36.60;38.70
3770;DHT22;1900;48.890;9.190;2022-07-18T11:41:31;36.70;38.80
3770;DHT22;1900;48.890;9.190;2022-07-18T11:43:58;36.80;38.90
3770;DHT22;1900;48.890;9.190;2022-07-18T11:46:25;36.80;38.90
3770;DHT22;1900;48.890;9.190;2022-07-18T11:49:04;36.90;38.80
3770;DHT22;1900;48.890;9.190;2022-07-18T11:51:42;37.00;38.70
3770;DHT22;1900;48.890;9.190;2022-07-18T11:54:09;37.20;38.90
3770;DHT22;1900;48.890;9.190;2022-07-18T11:56:52;37.30;39.20
3770;DHT22;1900;48.890;9.190;2022-07-18T11:59:18;37.40;38.90
3770;DHT22;1900;48.890;9.190;2022-07-18T12:01:44;37.60;38.90
3770;DHT22;1900;48.890;9.190;2022-07-18T12:04:19;37.70;38.80
3770;DHT22;1900;48.890;9.190;2022-07-18T12:06:46;37.80;39.50
3770;DHT22;1900;48.890;9.190;2022-07-18T12:09:22;37.90;39.20
3770;DHT22;1900;48.890;9.190;2022-07-18T12:11:51;38.00;39.10
3770;DHT22;1900;48.890;9.190;2022-07-18T12:14:16;38.10;39.20
3770;DHT22;1900;48.890;9.190;2022-07-18T12:16:47;38.20;39.20
3770;DHT22;1900;48.890;9.190;2022-07-18T12:19:21;38.30;38.50
3770;DHT22;1900;48.890;9.190;2022-07-18T12:24:30;38.50;38.70
3770;DHT22;1900;48.890;9.190;2022-07-18T12:32:41;38.80;38.60
3770;DHT22;1900;48.890;9.190;2022-07-18T12:37:40;39.00;37.40
3770;DHT22;1900;48.890;9.190;2022-07-18T12:40:11;38.90;37.00
3770;DHT22;1900;48.890;9.190;2022-07-18T12:42:38;39.00;37.50
3770;DHT22;1900;48.890;9.190;2022-07-18T12:45:06;39.10;37.70
3770;DHT22;1900;48.890;9.190;2022-07-18T12:47:32;39.10;37.80
3770;DHT22;1900;48.890;9.190;2022-07-18T12:49:58;39.20;37.80
3770;DHT22;1900;48.890;9.190;2022-07-18T12:52:24;39.30;37.80
3770;DHT22;1900;48.890;9.190;2022-07-18T12:54:51;39.30;37.80
3770;DHT22;1900;48.890;9.190;2022-07-18T12:57:17;39.40;37.60
3770;DHT22;1900;48.890;9.190;2022-07-18T12:59:45;39.50;37.80
3770;DHT22;1900;48.890;9.190;2022-07-18T13:02:12;39.50;37.80
3770;DHT22;1900;48.890;9.190;2022-07-18T13:04:38;39.60;38.00
3770;DHT22;1900;48.890;9.190;2022-07-18T13:07:04;39.60;38.00
3770;DHT22;1900;48.890;9.190;2022-07-18T13:09:30;39.70;38.10
3770;DHT22;1900;48.890;9.190;2022-07-18T13:11:56;39.90;38.40
3770;DHT22;1900;48.890;9.190;2022-07-18T13:14:22;40.00;38.50
3770;DHT22;1900;48.890;9.190;2022-07-18T13:16:47;40.10;38.50
3770;DHT22;1900;48.890;9.190;2022-07-18T13:19:15;40.20;38.40
3770;DHT22;1900;48.890;9.190;2022-07-18T13:21:41;40.30;38.30
3770;DHT22;1900;48.890;9.190;2022-07-18T13:24:07;40.50;37.80
3770;DHT22;1900;48.890;9.190;2022-07-18T13:26:33;40.50;37.90
3770;DHT22;1900;48.890;9.190;2022-07-18T13:28:59;40.60;37.70
3770;DHT22;1900;48.890;9.190;2022-07-18T13:31:25;40.70;37.90
3770;DHT22;1900;48.890;9.190;2022-07-18T13:33:50;40.80;37.80
3770;DHT22;1900;48.890;9.190;2022-07-18T13:36:17;40.90;38.00
3770;DHT22;1900;48.890;9.190;2022-07-18T13:38:43;41.00;36.50
3770;DHT22;1900;48.890;9.190;2022-07-18T13:41:09;41.00;36.00
3770;DHT22;1900;48.890;9.190;2022-07-18T13:43:36;41.00;36.70
3770;DHT22;1900;48.890;9.190;2022-07-18T13:46:10;41.10;36.80
3770;DHT22;1900;48.890;9.190;2022-07-18T13:48:37;41.10;37.10
3770;DHT22;1900;48.890;9.190;2022-07-18T13:51:03;41.30;37.50
3770;DHT22;1900;48.890;9.190;2022-07-18T13:53:30;41.40;37.80
3770;DHT22;1900;48.890;9.190;2022-07-18T13:55:55;41.40;37.50
3770;DHT22;1900;48.890;9.190;2022-07-18T13:58:21;41.60;37.70
3770;DHT22;1900;48.890;9.190;2022-07-18T14:00:47;41.70;37.80
3770;DHT22;1900;48.890;9.190;2022-07-18T14:03:13;41.70;37.90
3770;DHT22;1900;48.890;9.190;2022-07-18T14:05:39;41.90;38.00
3770;DHT22;1900;48.890;9.190;2022-07-18T14:08:05;42.00;38.00
3770;DHT22;1900;48.890;9.190;2022-07-18T14:10:31;42.10;38.00
3770;DHT22;1900;48.890;9.190;2022-07-18T14:12:57;42.30;37.90
3770;DHT22;1900;48.890;9.190;2022-07-18T14:15:23;42.30;37.80
3770;DHT22;1900;48.890;9.190;2022-07-18T14:17:48;42.40;37.60
3770;DHT22;1900;48.890;9.190;2022-07-18T14:20:14;42.50;37.60
3770;DHT22;1900;48.890;9.190;2022-07-18T14:22:42;42.50;37.50
3770;DHT22;1900;48.890;9.190;2022-07-18T14:25:10;42.60;37.50
3770;DHT22;1900;48.890;9.190;2022-07-18T14:27:36;42.50;37.30
3770;DHT22;1900;48.890;9.190;2022-07-18T14:30:04;42.60;37.40
3770;DHT22;1900;48.890;9.190;2022-07-18T14:32:30;42.70;37.30
3770;DHT22;1900;48.890;9.190;2022-07-18T14:34:56;42.70;36.90
3770;DHT22;1900;48.890;9.190;2022-07-18T14:37:22;42.70;37.00
3770;DHT22;1900;48.890;9.190;2022-07-18T14:39:47;42.70;36.60
3770;DHT22;1900;48.890;9.190;2022-07-18T14:42:13;42.80;36.60
3770;DHT22;1900;48.890;9.190;2022-07-18T14:44:39;42.80;36.00
3770;DHT22;1900;48.890;9.190;2022-07-18T14:47:05;42.70;36.00
3770;DHT22;1900;48.890;9.190;2022-07-18T14:49:30;42.70;36.30
3770;DHT22;1900;48.890;9.190;2022-07-18T14:51:56;42.70;35.50
3770;DHT22;1900;48.890;9.190;2022-07-18T14:54:24;42.60;35.00
3770;DHT22;1900;48.890;9.190;2022-07-18T14:56:50;42.60;35.20
3770;DHT22;1900;48.890;9.190;2022-07-18T14:59:15;42.50;35.20
3770;DHT22;1900;48.890;9.190;2022-07-18T15:01:41;42.50;35.50
3770;DHT22;1900;48.890;9.190;2022-07-18T15:04:06;42.50;35.80
3770;DHT22;1900;48.890;9.190;2022-07-18T15:06:32;42.50;35.80
3770;DHT22;1900;48.890;9.190;2022-07-18T15:08:58;42.50;36.00
3770;DHT22;1900;48.890;9.190;2022-07-18T15:11:23;42.50;35.90
3770;DHT22;1900;48.890;9.190;2022-07-18T15:13:50;42.60;35.90
3770;DHT22;1900;48.890;9.190;2022-07-18T15:16:16;42.50;35.80
3770;DHT22;1900;48.890;9.190;2022-07-18T15:18:42;42.50;35.80
3770;DHT22;1900;48.890;9.190;2022-07-18T15:21:08;42.60;35.80
3770;DHT22;1900;48.890;9.190;2022-07-18T15:23:34;42.50;35.30
3770;DHT22;1900;48.890;9.190;2022-07-18T15:25:59;42.50;35.50
3770;DHT22;1900;48.890;9.190;2022-07-18T15:28:25;42.40;35.30
3770;DHT22;1900;48.890;9.190;2022-07-18T15:30:51;42.40;35.40
3770;DHT22;1900;48.890;9.190;2022-07-18T15:33:17;42.40;35.50
3770;DHT22;1900;48.890;9.190;2022-07-18T15:35:44;42.30;35.40
3770;DHT22;1900;48.890;9.190;2022-07-18T15:38:10;42.30;35.30
3770;DHT22;1900;48.890;9.190;2022-07-18T15:40:36;42.20;35.00
3770;DHT22;1900;48.890;9.190;2022-07-18T15:43:02;42.10;34.70
3770;DHT22;1900;48.890;9.190;2022-07-18T15:45:28;42.00;34.60
3770;DHT22;1900;48.890;9.190;2022-07-18T15:47:54;41.90;34.70
3770;DHT22;1900;48.890;9.190;2022-07-18T15:50:20;41.80;34.60
3770;DHT22;1900;48.890;9.190;2022-07-18T15:52:46;41.70;34.70
3770;DHT22;1900;48.890;9.190;2022-07-18T15:55:12;41.60;34.60
3770;DHT22;1900;48.890;9.190;2022-07-18T15:57:38;41.50;34.40
3770;DHT22;1900;48.890;9.190;2022-07-18T16:00:05;41.40;34.30
3770;DHT22;1900;48.890;9.190;2022-07-18T16:02:32;41.30;34.30
3770;DHT22;1900;48.890;9.190;2022-07-18T16:04:58;41.20;34.30
3770;DHT22;1900;48.890;9.190;2022-07-18T16:07:24;41.10;34.10
3770;DHT22;1900;48.890;9.190;2022-07-18T16:09:50;41.00;33.60
3770;DHT22;1900;48.890;9.190;2022-07-18T16:12:15;40.80;33.40
3770;DHT22;1900;48.890;9.190;2022-07-18T16:14:41;40.70;33.40
3770;DHT22;1900;48.890;9.190;2022-07-18T16:17:06;40.50;33.40
3770;DHT22;1900;48.890;9.190;2022-07-18T16:19:32;40.40;33.40
3770;DHT22;1900;48.890;9.190;2022-07-18T16:21:58;40.30;33.40
3770;DHT22;1900;48.890;9.190;2022-07-18T16:24:25;40.20;33.50
3770;DHT22;1900;48.890;9.190;2022-07-18T16:26:51;40.10;33.50
3770;DHT22;1900;48.890;9.190;2022-07-18T16:29:17;39.90;33.30
3770;DHT22;1900;48.890;9.190;2022-07-18T16:31:43;39.80;33.10
3770;DHT22;1900;48.890;9.190;2022-07-18T16:34:09;39.70;32.80
3770;DHT22;1900;48.890;9.190;2022-07-18T16:36:35;39.60;32.90
3770;DHT22;1900;48.890;9.190;2022-07-18T16:39:01;39.40;32.90
3770;DHT22;1900;48.890;9.190;2022-07-18T16:41:27;39.40;33.10
3770;DHT22;1900;48.890;9.190;2022-07-18T16:43:53;39.30;33.20
3770;DHT22;1900;48.890;9.190;2022-07-18T16:46:19;39.20;33.20
3770;DHT22;1900;48.890;9.190;2022-07-18T16:48:45;39.20;33.10
3770;DHT22;1900;48.890;9.190;2022-07-18T16:51:11;39.10;33.10
3770;DHT22;1900;48.890;9.190;2022-07-18T16:53:37;39.00;33.20
3770;DHT22;1900;48.890;9.190;2022-07-18T16:56:05;38.90;33.00
3770;DHT22;1900;48.890;9.190;2022-07-18T16:58:32;38.80;33.00